sensor_id;sensor_type;location;lat;lon;timestamp;P1;durP1;ratioP1;P2;durP2;ratioP2
23046;SDS011;11691;51.462;6.902;2022-11-18T00:01:49;4.10;;;1.30;;
23046;SDS011;11691;51.462;6.902;2022-11-18T00:04:15;4.63;;;1.17;;
23046;SDS011;11691;51.462;6.902;2022-11-18T00:06:41;4.67;;;1.30;;
23046;SDS011;11691;51.462;6.902;2022-11-18T00:09:07;4.07;;;1.40;;
23046;SDS011;11691;51.462;6.902;2022-11-18T00:11:33;5.07;;;1.60;;
23046;SDS011;11691;51.462;6.902;2022-11-18T00:14:19;6.93;;;1.60;;
23046;SDS011;11691;51.462;6.902;2022-11-18T00:16:47;4.53;;;1.87;;
23046;SDS011;11691;51.462;6.902;2022-11-18T00:19:13;5.67;;;1.43;;
23046;SDS011;11691;51.462;6.902;2022-11-18T00:21:39;3.67;;;1.40;;
23046;SDS011;11691;51.462;6.902;2022-11-18T00:24:05;4.10;;;1.17;;
23046;SDS011;11691;51.462;6.902;2022-11-18T00:26:31;4.20;;;1.48;;
23046;SDS011;11691;51.462;6.902;2022-11-18T00:28:57;4.33;;;1.53;;
23046;SDS011;11691;51.462;6.902;2022-11-18T00:31:23;3.42;;;1.45;;
23046;SDS011;11691;51.462;6.902;2022-11-18T00:33:49;3.35;;;1.27;;
23046;SDS011;11691;51.462;6.902;2022-11-18T00:36:15;5.72;;;1.48;;
23046;SDS011;11691;51.462;6.902;2022-11-18T00:38:41;5.10;;;1.55;;
23046;SDS011;11691;51.462;6.902;2022-11-18T00:41:08;5.43;;;1.45;;
23046;SDS011;11691;51.462;6.902;2022-11-18T00:43:36;4.03;;;1.27;;
23046;SDS011;11691;51.462;6.902;2022-11-18T00:46:03;5.65;;;1.60;;
23046;SDS011;11691;51.462;6.902;2022-11-18T00:48:29;3.15;;;1.20;;
23046;SDS011;11691;51.462;6.902;2022-11-18T00:50:57;2.75;;;1.42;;
23046;SDS011;11691;51.462;6.902;2022-11-18T00:53:30;5.20;;;1.50;;
23046;SDS011;11691;51.462;6.902;2022-11-18T00:55:56;4.82;;;1.27;;
23046;SDS011;11691;51.462;6.902;2022-11-18T00:58:22;5.65;;;1.50;;
23046;SDS011;11691;51.462;6.902;2022-11-18T01:00:51;7.15;;;1.80;;
23046;SDS011;11691;51.462;6.902;2022-11-18T01:03:17;3.70;;;1.40;;
23046;SDS011;11691;51.462;6.902;2022-11-18T01:05:43;4.00;;;1.38;;
23046;SDS011;11691;51.462;6.902;2022-11-18T01:08:10;11.82;;;1.48;;
23046;SDS011;11691;51.462;6.902;2022-11-18T01:10:37;6.07;;;1.42;;
23046;SDS011;11691;51.462;6.902;2022-11-18T01:13:06;5.53;;;1.70;;
23046;SDS011;11691;51.462;6.902;2022-11-18T01:15:55;5.45;;;1.98;;
23046;SDS011;11691;51.462;6.902;2022-11-18T01:18:23;7.90;;;1.73;;
23046;SDS011;11691;51.462;6.902;2022-11-18T01:20:58;6.67;;;1.87;;
23046;SDS011;11691;51.462;6.902;2022-11-18T01:23:24;4.80;;;1.70;;
23046;SDS011;11691;51.462;6.902;2022-11-18T01:25:51;5.32;;;1.67;;
23046;SDS011;11691;51.462;6.902;2022-11-18T01:28:17;8.43;;;1.70;;
23046;SDS011;11691;51.462;6.902;2022-11-18T01:30:43;6.03;;;1.63;;
23046;SDS011;11691;51.462;6.902;2022-11-18T01:33:09;6.00;;;1.90;;
23046;SDS011;11691;51.462;6.902;2022-11-18T01:35:42;5.45;;;2.05;;
23046;SDS011;11691;51.462;6.902;2022-11-18T01:38:11;6.10;;;1.98;;
23046;SDS011;11691;51.462;6.902;2022-11-18T01:40:38;6.50;;;1.85;;
23046;SDS011;11691;51.462;6.902;2022-11-18T01:43:08;5.75;;;1.85;;
23046;SDS011;11691;51.462;6.902;2022-11-18T01:45:40;6.45;;;1.65;;
23046;SDS011;11691;51.462;6.902;2022-11-18T01:48:27;5.13;;;1.88;;
23046;SDS011;11691;51.462;6.902;2022-11-18T01:51:00;7.38;;;1.70;;
23046;SDS011;11691;51.462;6.902;2022-11-18T01:53:37;2.38;;;1.17;;
23046;SDS011;11691;51.462;6.902;2022-11-18T01:56:15;6.38;;;1.80;;
23046;SDS011;11691;51.462;6.902;2022-11-18T01:58:49;5.40;;;1.45;;
23046;SDS011;11691;51.462;6.902;2022-11-18T02:01:37;6.40;;;2.20;;
23046;SDS011;11691;51.462;6.902;2022-11-18T02:04:04;3.67;;;1.33;;
23046;SDS011;11691;51.462;6.902;2022-11-18T02:06:30;6.45;;;2.08;;
23046;SDS011;11691;51.462;6.902;2022-11-18T02:08:56;8.38;;;1.67;;
23046;SDS011;11691;51.462;6.902;2022-11-18T02:11:22;4.10;;;2.03;;
23046;SDS011;11691;51.462;6.902;2022-11-18T02:14:07;7.33;;;2.17;;
23046;SDS011;11691;51.462;6.902;2022-11-18T02:19:16;3.87;;;1.80;;
23046;SDS011;11691;51.462;6.902;2022-11-18T02:24:26;7.17;;;1.90;;
23046;SDS011;11691;51.462;6.902;2022-11-18T02:29:29;9.40;;;2.10;;
23046;SDS011;11691;51.462;6.902;2022-11-18T02:32:01;8.60;;;1.83;;
23046;SDS011;11691;51.462;6.902;2022-11-18T02:37:17;2.50;;;1.50;;
23046;SDS011;11691;51.462;6.902;2022-11-18T02:39:59;8.60;;;2.00;;
23046;SDS011;11691;51.462;6.902;2022-11-18T02:42:26;5.65;;;1.50;;
23046;SDS011;11691;51.462;6.902;2022-11-18T02:44:56;9.67;;;1.90;;
23046;SDS011;11691;51.462;6.902;2022-11-18T02:47:25;6.10;;;1.63;;
23046;SDS011;11691;51.462;6.902;2022-11-18T02:49:53;4.55;;;1.58;;
23046;SDS011;11691;51.462;6.902;2022-11-18T02:52:21;5.00;;;1.60;;
23046;SDS011;11691;51.462;6.902;2022-11-18T02:54:48;4.30;;;1.67;;
23046;SDS011;11691;51.462;6.902;2022-11-18T02:57:15;7.43;;;1.70;;
23046;SDS011;11691;51.462;6.902;2022-11-18T02:59:43;3.50;;;1.43;;
23046;SDS011;11691;51.462;6.902;2022-11-18T03:02:16;4.00;;;1.58;;
23046;SDS011;11691;51.462;6.902;2022-11-18T03:04:43;2.63;;;1.30;;
23046;SDS011;11691;51.462;6.902;2022-11-18T03:07:31;6.85;;;1.80;;
23046;SDS011;11691;51.462;6.902;2022-11-18T03:09:59;6.03;;;1.60;;
23046;SDS011;11691;51.462;6.902;2022-11-18T03:15:00;4.53;;;1.27;;
23046;SDS011;11691;51.462;6.902;2022-11-18T03:28:08;6.95;;;2.10;;
23046;SDS011;11691;51.462;6.902;2022-11-18T03:30:35;9.90;;;1.57;;
23046;SDS011;11691;51.462;6.902;2022-11-18T03:33:13;4.05;;;1.70;;
23046;SDS011;11691;51.462;6.902;2022-11-18T03:35:42;4.93;;;2.03;;
23046;SDS011;11691;51.462;6.902;2022-11-18T03:38:12;7.47;;;1.63;;
23046;SDS011;11691;51.462;6.902;2022-11-18T03:40:40;8.27;;;1.80;;
23046;SDS011;11691;51.462;6.902;2022-11-18T03:43:09;6.55;;;1.88;;
23046;SDS011;11691;51.462;6.902;2022-11-18T03:45:46;13.43;;;2.30;;
23046;SDS011;11691;51.462;6.902;2022-11-18T03:48:15;8.55;;;1.58;;
23046;SDS011;11691;51.462;6.902;2022-11-18T03:50:43;8.05;;;2.03;;
23046;SDS011;11691;51.462;6.902;2022-11-18T03:53:11;6.57;;;1.92;;
23046;SDS011;11691;51.462;6.902;2022-11-18T03:55:40;3.25;;;1.48;;
23046;SDS011;11691;51.462;6.902;2022-11-18T03:58:24;6.63;;;1.58;;
23046;SDS011;11691;51.462;6.902;2022-11-18T04:00:54;7.20;;;2.00;;
23046;SDS011;11691;51.462;6.902;2022-11-18T04:03:25;4.88;;;1.88;;
23046;SDS011;11691;51.462;6.902;2022-11-18T04:05:52;6.03;;;1.83;;
23046;SDS011;11691;51.462;6.902;2022-11-18T04:08:23;3.97;;;1.80;;
23046;SDS011;11691;51.462;6.902;2022-11-18T04:10:58;7.28;;;1.70;;
23046;SDS011;11691;51.462;6.902;2022-11-18T04:14:02;5.50;;;1.92;;
23046;SDS011;11691;51.462;6.902;2022-11-18T04:16:30;11.40;;;2.38;;
23046;SDS011;11691;51.462;6.902;2022-11-18T04:18:56;5.10;;;1.80;;
23046;SDS011;11691;51.462;6.902;2022-11-18T04:21:23;4.53;;;1.90;;
23046;SDS011;11691;51.462;6.902;2022-11-18T04:23:49;9.45;;;1.75;;
23046;SDS011;11691;51.462;6.902;2022-11-18T04:26:15;9.18;;;2.05;;
23046;SDS011;11691;51.462;6.902;2022-11-18T04:28:42;10.98;;;2.67;;
23046;SDS011;11691;51.462;6.902;2022-11-18T04:31:07;4.68;;;1.73;;
23046;SDS011;11691;51.462;6.902;2022-11-18T04:33:33;6.75;;;2.00;;
23046;SDS011;11691;51.462;6.902;2022-11-18T04:35:59;5.65;;;2.25;;
23046;SDS011;11691;51.462;6.902;2022-11-18T04:38:25;4.38;;;1.60;;
23046;SDS011;11691;51.462;6.902;2022-11-18T04:40:51;4.37;;;1.70;;
23046;SDS011;11691;51.462;6.902;2022-11-18T04:43:17;4.70;;;1.77;;
23046;SDS011;11691;51.462;6.902;2022-11-18T04:45:43;5.18;;;2.15;;
23046;SDS011;11691;51.462;6.902;2022-11-18T04:48:09;8.43;;;1.55;;
23046;SDS011;11691;51.462;6.902;2022-11-18T04:50:35;4.38;;;1.60;;
23046;SDS011;11691;51.462;6.902;2022-11-18T04:53:01;7.30;;;2.03;;
23046;SDS011;11691;51.462;6.902;2022-11-18T04:55:27;4.97;;;1.77;;
23046;SDS011;11691;51.462;6.902;2022-11-18T04:57:53;7.50;;;1.98;;
23046;SDS011;11691;51.462;6.902;2022-11-18T05:00:19;5.87;;;2.10;;
23046;SDS011;11691;51.462;6.902;2022-11-18T05:02:47;7.33;;;2.13;;
23046;SDS011;11691;51.462;6.902;2022-11-18T05:05:13;4.50;;;1.70;;
23046;SDS011;11691;51.462;6.902;2022-11-18T05:07:39;3.83;;;1.80;;
23046;SDS011;11691;51.462;6.902;2022-11-18T05:10:05;5.10;;;1.87;;
23046;SDS011;11691;51.462;6.902;2022-11-18T05:12:30;4.97;;;1.87;;
23046;SDS011;11691;51.462;6.902;2022-11-18T05:15:16;5.00;;;1.70;;
23046;SDS011;11691;51.462;6.902;2022-11-18T05:17:43;5.73;;;2.20;;
23046;SDS011;11691;51.462;6.902;2022-11-18T05:20:10;6.95;;;2.17;;
23046;SDS011;11691;51.462;6.902;2022-11-18T05:22:36;6.57;;;2.53;;
23046;SDS011;11691;51.462;6.902;2022-11-18T05:25:02;3.90;;;1.90;;
23046;SDS011;11691;51.462;6.902;2022-11-18T05:27:28;6.70;;;2.37;;
23046;SDS011;11691;51.462;6.902;2022-11-18T05:29:54;8.38;;;2.30;;
23046;SDS011;11691;51.462;6.902;2022-11-18T05:32:20;7.53;;;2.20;;
23046;SDS011;11691;51.462;6.902;2022-11-18T05:34:46;4.35;;;1.80;;
23046;SDS011;11691;51.462;6.902;2022-11-18T05:37:12;6.33;;;1.90;;
23046;SDS011;11691;51.462;6.902;2022-11-18T05:39:38;5.65;;;2.13;;
23046;SDS011;11691;51.462;6.902;2022-11-18T05:42:04;6.88;;;2.20;;
23046;SDS011;11691;51.462;6.902;2022-11-18T05:44:49;6.35;;;2.15;;
23046;SDS011;11691;51.462;6.902;2022-11-18T05:47:15;10.70;;;2.10;;
23046;SDS011;11691;51.462;6.902;2022-11-18T05:49:42;6.20;;;2.28;;
23046;SDS011;11691;51.462;6.902;2022-11-18T05:52:08;5.87;;;2.30;;
23046;SDS011;11691;51.462;6.902;2022-11-18T05:54:33;4.82;;;2.35;;
23046;SDS011;11691;51.462;6.902;2022-11-18T05:56:59;7.35;;;2.38;;
23046;SDS011;11691;51.462;6.902;2022-11-18T05:59:25;7.18;;;2.75;;
23046;SDS011;11691;51.462;6.902;2022-11-18T06:01:53;9.30;;;2.97;;
23046;SDS011;11691;51.462;6.902;2022-11-18T06:07:16;6.10;;;2.30;;
23046;SDS011;11691;51.462;6.902;2022-11-18T06:09:47;7.53;;;2.50;;
23046;SDS011;11691;51.462;6.902;2022-11-18T06:12:16;9.63;;;2.80;;
23046;SDS011;11691;51.462;6.902;2022-11-18T06:14:44;7.60;;;2.57;;
23046;SDS011;11691;51.462;6.902;2022-11-18T06:17:19;5.63;;;2.47;;
23046;SDS011;11691;51.462;6.902;2022-11-18T06:19:54;8.60;;;2.80;;
23046;SDS011;11691;51.462;6.902;2022-11-18T06:22:20;9.00;;;3.10;;
23046;SDS011;11691;51.462;6.902;2022-11-18T06:24:46;8.73;;;2.73;;
23046;SDS011;11691;51.462;6.902;2022-11-18T06:27:12;6.57;;;2.83;;
23046;SDS011;11691;51.462;6.902;2022-11-18T06:29:39;12.50;;;3.23;;
23046;SDS011;11691;51.462;6.902;2022-11-18T06:32:04;6.10;;;3.00;;
23046;SDS011;11691;51.462;6.902;2022-11-18T06:34:30;8.77;;;3.10;;
23046;SDS011;11691;51.462;6.902;2022-11-18T06:36:56;8.07;;;3.20;;
23046;SDS011;11691;51.462;6.902;2022-11-18T06:39:22;4.33;;;2.40;;
23046;SDS011;11691;51.462;6.902;2022-11-18T06:41:48;7.17;;;2.93;;
23046;SDS011;11691;51.462;6.902;2022-11-18T06:44:14;5.30;;;2.83;;
23046;SDS011;11691;51.462;6.902;2022-11-18T06:46:40;8.03;;;3.20;;
23046;SDS011;11691;51.462;6.902;2022-11-18T06:49:22;7.50;;;3.07;;
23046;SDS011;11691;51.462;6.902;2022-11-18T06:51:48;10.13;;;2.87;;
23046;SDS011;11691;51.462;6.902;2022-11-18T06:54:14;7.17;;;2.60;;
23046;SDS011;11691;51.462;6.902;2022-11-18T06:56:40;5.77;;;2.87;;
23046;SDS011;11691;51.462;6.902;2022-11-18T06:59:06;6.35;;;2.50;;
23046;SDS011;11691;51.462;6.902;2022-11-18T07:01:36;5.47;;;2.73;;
23046;SDS011;11691;51.462;6.902;2022-11-18T07:04:02;7.80;;;3.43;;
23046;SDS011;11691;51.462;6.902;2022-11-18T07:06:29;8.80;;;3.60;;
23046;SDS011;11691;51.462;6.902;2022-11-18T07:08:58;6.47;;;2.85;;
23046;SDS011;11691;51.462;6.902;2022-11-18T07:11:25;8.43;;;2.75;;
23046;SDS011;11691;51.462;6.902;2022-11-18T07:13:51;7.13;;;2.80;;
23046;SDS011;11691;51.462;6.902;2022-11-18T07:16:18;5.83;;;2.40;;
23046;SDS011;11691;51.462;6.902;2022-11-18T07:18:45;8.53;;;3.10;;
23046;SDS011;11691;51.462;6.902;2022-11-18T07:21:12;6.00;;;2.73;;
23046;SDS011;11691;51.462;6.902;2022-11-18T07:23:40;7.93;;;3.50;;
23046;SDS011;11691;51.462;6.902;2022-11-18T07:26:06;11.10;;;3.50;;
23046;SDS011;11691;51.462;6.902;2022-11-18T07:28:32;8.90;;;3.30;;
23046;SDS011;11691;51.462;6.902;2022-11-18T07:31:31;7.60;;;2.83;;
23046;SDS011;11691;51.462;6.902;2022-11-18T07:33:50;6.90;;;2.70;;
23046;SDS011;11691;51.462;6.902;2022-11-18T07:36:19;7.40;;;3.33;;
23046;SDS011;11691;51.462;6.902;2022-11-18T07:38:45;5.63;;;3.13;;
23046;SDS011;11691;51.462;6.902;2022-11-18T07:41:12;6.63;;;3.25;;
23046;SDS011;11691;51.462;6.902;2022-11-18T07:43:39;6.13;;;3.05;;
23046;SDS011;11691;51.462;6.902;2022-11-18T07:46:12;5.50;;;2.90;;
23046;SDS011;11691;51.462;6.902;2022-11-18T07:48:39;8.90;;;2.90;;
23046;SDS011;11691;51.462;6.902;2022-11-18T07:51:05;8.82;;;3.47;;
23046;SDS011;11691;51.462;6.902;2022-11-18T07:53:32;13.60;;;3.27;;
23046;SDS011;11691;51.462;6.902;2022-11-18T07:55:58;9.88;;;3.10;;
23046;SDS011;11691;51.462;6.902;2022-11-18T07:58:24;8.48;;;3.53;;
23046;SDS011;11691;51.462;6.902;2022-11-18T08:00:50;12.75;;;3.63;;
23046;SDS011;11691;51.462;6.902;2022-11-18T08:03:16;5.47;;;3.22;;
23046;SDS011;11691;51.462;6.902;2022-11-18T08:05:42;7.00;;;3.53;;
23046;SDS011;11691;51.462;6.902;2022-11-18T08:08:08;8.90;;;3.47;;
23046;SDS011;11691;51.462;6.902;2022-11-18T08:10:35;8.73;;;3.50;;
23046;SDS011;11691;51.462;6.902;2022-11-18T08:13:01;5.80;;;3.53;;
23046;SDS011;11691;51.462;6.902;2022-11-18T08:15:27;8.23;;;3.30;;
23046;SDS011;11691;51.462;6.902;2022-11-18T08:17:53;9.98;;;3.03;;
23046;SDS011;11691;51.462;6.902;2022-11-18T08:20:19;5.13;;;2.65;;
23046;SDS011;11691;51.462;6.902;2022-11-18T08:22:45;6.45;;;3.17;;
23046;SDS011;11691;51.462;6.902;2022-11-18T08:25:11;10.23;;;3.22;;
23046;SDS011;11691;51.462;6.902;2022-11-18T08:27:37;5.55;;;3.00;;
23046;SDS011;11691;51.462;6.902;2022-11-18T08:30:02;6.72;;;3.25;;
23046;SDS011;11691;51.462;6.902;2022-11-18T08:32:28;5.65;;;2.95;;
23046;SDS011;11691;51.462;6.902;2022-11-18T08:34:55;4.90;;;2.78;;
23046;SDS011;11691;51.462;6.902;2022-11-18T08:37:21;6.78;;;2.90;;
23046;SDS011;11691;51.462;6.902;2022-11-18T08:39:47;6.72;;;2.78;;
23046;SDS011;11691;51.462;6.902;2022-11-18T08:42:13;8.57;;;2.90;;
23046;SDS011;11691;51.462;6.902;2022-11-18T08:44:39;4.60;;;2.47;;
23046;SDS011;11691;51.462;6.902;2022-11-18T08:47:05;6.32;;;2.83;;
23046;SDS011;11691;51.462;6.902;2022-11-18T08:49:31;8.45;;;2.53;;
23046;SDS011;11691;51.462;6.902;2022-11-18T08:51:57;6.30;;;2.78;;
23046;SDS011;11691;51.462;6.902;2022-11-18T08:54:23;6.30;;;2.58;;
23046;SDS011;11691;51.462;6.902;2022-11-18T08:56:49;4.38;;;2.83;;
23046;SDS011;11691;51.462;6.902;2022-11-18T08:59:15;6.00;;;2.70;;
23046;SDS011;11691;51.462;6.902;2022-11-18T09:01:41;10.07;;;3.30;;
23046;SDS011;11691;51.462;6.902;2022-11-18T09:04:07;7.75;;;3.10;;
23046;SDS011;11691;51.462;6.902;2022-11-18T09:06:33;5.68;;;2.80;;
23046;SDS011;11691;51.462;6.902;2022-11-18T09:08:59;10.07;;;2.95;;
23046;SDS011;11691;51.462;6.902;2022-11-18T09:11:26;12.93;;;2.80;;
23046;SDS011;11691;51.462;6.902;2022-11-18T09:13:55;7.95;;;2.70;;
23046;SDS011;11691;51.462;6.902;2022-11-18T09:16:22;6.50;;;2.83;;
23046;SDS011;11691;51.462;6.902;2022-11-18T09:18:49;7.13;;;3.22;;
23046;SDS011;11691;51.462;6.902;2022-11-18T09:21:15;5.78;;;3.00;;
23046;SDS011;11691;51.462;6.902;2022-11-18T09:23:41;6.78;;;3.00;;
23046;SDS011;11691;51.462;6.902;2022-11-18T09:26:08;8.98;;;3.08;;
23046;SDS011;11691;51.462;6.902;2022-11-18T09:28:34;9.68;;;2.63;;
23046;SDS011;11691;51.462;6.902;2022-11-18T09:31:04;7.45;;;3.22;;
23046;SDS011;11691;51.462;6.902;2022-11-18T09:33:30;10.02;;;3.28;;
23046;SDS011;11691;51.462;6.902;2022-11-18T09:35:56;6.80;;;3.00;;
23046;SDS011;11691;51.462;6.902;2022-11-18T09:38:22;4.75;;;3.03;;
23046;SDS011;11691;51.462;6.902;2022-11-18T09:43:24;6.10;;;2.80;;
23046;SDS011;11691;51.462;6.902;2022-11-18T09:45:55;7.45;;;2.97;;
23046;SDS011;11691;51.462;6.902;2022-11-18T09:48:27;7.90;;;3.00;;
23046;SDS011;11691;51.462;6.902;2022-11-18T09:51:11;6.57;;;2.90;;
23046;SDS011;11691;51.462;6.902;2022-11-18T09:53:38;9.82;;;3.25;;
23046;SDS011;11691;51.462;6.902;2022-11-18T09:56:12;8.20;;;3.50;;
23046;SDS011;11691;51.462;6.902;2022-11-18T09:58:39;8.45;;;3.38;;
23046;SDS011;11691;51.462;6.902;2022-11-18T10:01:12;10.10;;;3.15;;
23046;SDS011;11691;51.462;6.902;2022-11-18T10:03:38;8.75;;;3.47;;
23046;SDS011;11691;51.462;6.902;2022-11-18T10:08:43;7.30;;;3.33;;
23046;SDS011;11691;51.462;6.902;2022-11-18T10:11:18;9.93;;;3.40;;
23046;SDS011;11691;51.462;6.902;2022-11-18T10:13:53;9.43;;;3.65;;
23046;SDS011;11691;51.462;6.902;2022-11-18T10:19:18;8.77;;;3.10;;
23046;SDS011;11691;51.462;6.902;2022-11-18T10:21:49;6.32;;;3.40;;
23046;SDS011;11691;51.462;6.902;2022-11-18T10:24:20;10.10;;;3.33;;
23046;SDS011;11691;51.462;6.902;2022-11-18T10:26:47;7.72;;;2.47;;
23046;SDS011;11691;51.462;6.902;2022-11-18T10:29:19;6.85;;;3.40;;
23046;SDS011;11691;51.462;6.902;2022-11-18T10:34:55;11.70;;;3.35;;
23046;SDS011;11691;51.462;6.902;2022-11-18T10:37:27;9.18;;;3.10;;
23046;SDS011;11691;51.462;6.902;2022-11-18T10:39:54;6.65;;;2.95;;
23046;SDS011;11691;51.462;6.902;2022-11-18T10:42:25;7.22;;;2.90;;
23046;SDS011;11691;51.462;6.902;2022-11-18T10:44:51;11.75;;;3.88;;
23046;SDS011;11691;51.462;6.902;2022-11-18T10:47:22;10.00;;;3.25;;
23046;SDS011;11691;51.462;6.902;2022-11-18T10:49:49;8.77;;;3.28;;
23046;SDS011;11691;51.462;6.902;2022-11-18T10:52:15;9.27;;;2.90;;
23046;SDS011;11691;51.462;6.902;2022-11-18T10:54:42;9.77;;;3.20;;
23046;SDS011;11691;51.462;6.902;2022-11-18T10:57:17;10.27;;;3.85;;
23046;SDS011;11691;51.462;6.902;2022-11-18T10:59:51;7.80;;;3.20;;
23046;SDS011;11691;51.462;6.902;2022-11-18T11:02:37;8.60;;;3.65;;
23046;SDS011;11691;51.462;6.902;2022-11-18T11:08:01;6.28;;;3.92;;
23046;SDS011;11691;51.462;6.902;2022-11-18T11:10:28;8.05;;;3.65;;
23046;SDS011;11691;51.462;6.902;2022-11-18T11:12:56;7.05;;;4.35;;
23046;SDS011;11691;51.462;6.902;2022-11-18T11:15:40;9.27;;;4.18;;
23046;SDS011;11691;51.462;6.902;2022-11-18T11:18:11;10.13;;;4.57;;
23046;SDS011;11691;51.462;6.902;2022-11-18T11:20:58;9.40;;;4.10;;
23046;SDS011;11691;51.462;6.902;2022-11-18T11:23:24;11.95;;;4.20;;
23046;SDS011;11691;51.462;6.902;2022-11-18T11:25:55;11.20;;;4.50;;
23046;SDS011;11691;51.462;6.902;2022-11-18T11:33:58;10.88;;;4.50;;
23046;SDS011;11691;51.462;6.902;2022-11-18T11:36:34;6.50;;;4.10;;
23046;SDS011;11691;51.462;6.902;2022-11-18T11:39:24;5.97;;;3.58;;
23046;SDS011;11691;51.462;6.902;2022-11-18T11:41:58;8.05;;;4.38;;
23046;SDS011;11691;51.462;6.902;2022-11-18T12:01:08;11.25;;;4.03;;
23046;SDS011;11691;51.462;6.902;2022-11-18T12:03:43;8.27;;;2.97;;
23046;SDS011;11691;51.462;6.902;2022-11-18T12:06:10;9.02;;;2.80;;
23046;SDS011;11691;51.462;6.902;2022-11-18T12:08:37;6.53;;;2.92;;
23046;SDS011;11691;51.462;6.902;2022-11-18T12:11:30;6.63;;;2.63;;
23046;SDS011;11691;51.462;6.902;2022-11-18T12:16:48;9.30;;;3.17;;
23046;SDS011;11691;51.462;6.902;2022-11-18T12:19:24;8.60;;;2.67;;
23046;SDS011;11691;51.462;6.902;2022-11-18T12:21:51;6.68;;;2.33;;
23046;SDS011;11691;51.462;6.902;2022-11-18T12:24:28;6.43;;;2.75;;
23046;SDS011;11691;51.462;6.902;2022-11-18T12:26:59;4.78;;;2.70;;
23046;SDS011;11691;51.462;6.902;2022-11-18T12:29:29;15.63;;;3.10;;
23046;SDS011;11691;51.462;6.902;2022-11-18T12:31:58;7.75;;;2.20;;
23046;SDS011;11691;51.462;6.902;2022-11-18T12:42:32;7.45;;;2.10;;
23046;SDS011;11691;51.462;6.902;2022-11-18T12:50:57;5.63;;;1.92;;
23046;SDS011;11691;51.462;6.902;2022-11-18T12:58:43;8.15;;;1.80;;
23046;SDS011;11691;51.462;6.902;2022-11-18T13:01:10;3.92;;;1.98;;
23046;SDS011;11691;51.462;6.902;2022-11-18T13:03:36;6.25;;;1.92;;
23046;SDS011;11691;51.462;6.902;2022-11-18T13:06:11;12.85;;;2.33;;
23046;SDS011;11691;51.462;6.902;2022-11-18T13:08:43;6.63;;;1.70;;
23046;SDS011;11691;51.462;6.902;2022-11-18T13:11:15;5.05;;;1.63;;
23046;SDS011;11691;51.462;6.902;2022-11-18T13:14:01;5.97;;;1.75;;
23046;SDS011;11691;51.462;6.902;2022-11-18T13:16:47;5.60;;;1.95;;
23046;SDS011;11691;51.462;6.902;2022-11-18T13:19:32;6.30;;;1.80;;
23046;SDS011;11691;51.462;6.902;2022-11-18T13:22:01;9.52;;;2.50;;
23046;SDS011;11691;51.462;6.902;2022-11-18T13:24:47;9.65;;;2.70;;
23046;SDS011;11691;51.462;6.902;2022-11-18T13:30:16;5.05;;;1.95;;
23046;SDS011;11691;51.462;6.902;2022-11-18T13:32:43;5.25;;;1.67;;
23046;SDS011;11691;51.462;6.902;2022-11-18T13:35:11;7.93;;;1.85;;
23046;SDS011;11691;51.462;6.902;2022-11-18T13:37:52;4.93;;;2.00;;
23046;SDS011;11691;51.462;6.902;2022-11-18T13:40:30;8.15;;;1.98;;
23046;SDS011;11691;51.462;6.902;2022-11-18T13:43:29;7.38;;;1.98;;
23046;SDS011;11691;51.462;6.902;2022-11-18T13:45:56;8.80;;;2.08;;
23046;SDS011;11691;51.462;6.902;2022-11-18T13:48:39;6.93;;;2.33;;
23046;SDS011;11691;51.462;6.902;2022-11-18T13:51:11;7.93;;;2.10;;
23046;SDS011;11691;51.462;6.902;2022-11-18T13:53:37;8.70;;;2.08;;
23046;SDS011;11691;51.462;6.902;2022-11-18T13:56:04;5.95;;;1.60;;
23046;SDS011;11691;51.462;6.902;2022-11-18T14:01:02;7.45;;;1.50;;
23046;SDS011;11691;51.462;6.902;2022-11-18T14:05:55;8.55;;;1.75;;
23046;SDS011;11691;51.462;6.902;2022-11-18T14:08:25;7.57;;;1.75;;
23046;SDS011;11691;51.462;6.902;2022-11-18T14:10:58;7.72;;;2.55;;
23046;SDS011;11691;51.462;6.902;2022-11-18T14:13:31;5.43;;;1.83;;
23046;SDS011;11691;51.462;6.902;2022-11-18T14:16:02;9.48;;;2.17;;
23046;SDS011;11691;51.462;6.902;2022-11-18T14:18:30;9.57;;;1.85;;
23046;SDS011;11691;51.462;6.902;2022-11-18T14:20:57;5.75;;;1.52;;
23046;SDS011;11691;51.462;6.902;2022-11-18T14:23:33;5.55;;;1.75;;
23046;SDS011;11691;51.462;6.902;2022-11-18T14:26:00;10.48;;;1.83;;
23046;SDS011;11691;51.462;6.902;2022-11-18T14:28:31;9.05;;;2.00;;
23046;SDS011;11691;51.462;6.902;2022-11-18T14:36:39;5.72;;;1.90;;
23046;SDS011;11691;51.462;6.902;2022-11-18T14:39:16;4.68;;;1.90;;
23046;SDS011;11691;51.462;6.902;2022-11-18T14:41:49;4.63;;;2.15;;
23046;SDS011;11691;51.462;6.902;2022-11-18T14:44:16;10.57;;;2.25;;
23046;SDS011;11691;51.462;6.902;2022-11-18T14:46:47;10.32;;;2.40;;
23046;SDS011;11691;51.462;6.902;2022-11-18T14:49:17;5.25;;;2.13;;
23046;SDS011;11691;51.462;6.902;2022-11-18T14:51:45;7.70;;;2.50;;
23046;SDS011;11691;51.462;6.902;2022-11-18T14:54:14;5.95;;;2.42;;
23046;SDS011;11691;51.462;6.902;2022-11-18T14:56:41;7.68;;;2.28;;
23046;SDS011;11691;51.462;6.902;2022-11-18T14:59:11;6.80;;;2.95;;
23046;SDS011;11691;51.462;6.902;2022-11-18T15:01:37;9.60;;;2.88;;
23046;SDS011;11691;51.462;6.902;2022-11-18T15:04:04;5.63;;;2.38;;
23046;SDS011;11691;51.462;6.902;2022-11-18T15:06:30;5.75;;;2.50;;
23046;SDS011;11691;51.462;6.902;2022-11-18T15:08:56;9.20;;;2.65;;
23046;SDS011;11691;51.462;6.902;2022-11-18T15:11:22;9.63;;;2.78;;
23046;SDS011;11691;51.462;6.902;2022-11-18T15:13:48;6.78;;;2.55;;
23046;SDS011;11691;51.462;6.902;2022-11-18T15:16:16;5.70;;;2.40;;
23046;SDS011;11691;51.462;6.902;2022-11-18T15:18:43;11.40;;;3.13;;
23046;SDS011;11691;51.462;6.902;2022-11-18T15:21:11;7.13;;;2.72;;
23046;SDS011;11691;51.462;6.902;2022-11-18T15:23:37;7.38;;;2.92;;
23046;SDS011;11691;51.462;6.902;2022-11-18T15:28:57;9.32;;;3.10;;
23046;SDS011;11691;51.462;6.902;2022-11-18T15:31:24;7.75;;;2.50;;
23046;SDS011;11691;51.462;6.902;2022-11-18T15:33:50;6.10;;;2.92;;
23046;SDS011;11691;51.462;6.902;2022-11-18T15:36:23;8.32;;;3.40;;
23046;SDS011;11691;51.462;6.902;2022-11-18T15:38:49;11.05;;;3.22;;
23046;SDS011;11691;51.462;6.902;2022-11-18T15:41:16;7.97;;;3.70;;
23046;SDS011;11691;51.462;6.902;2022-11-18T15:43:43;8.18;;;3.42;;
23046;SDS011;11691;51.462;6.902;2022-11-18T15:46:09;10.82;;;3.95;;
23046;SDS011;11691;51.462;6.902;2022-11-18T15:48:35;12.43;;;5.63;;
23046;SDS011;11691;51.462;6.902;2022-11-18T15:51:01;12.40;;;4.97;;
23046;SDS011;11691;51.462;6.902;2022-11-18T15:53:27;6.05;;;3.90;;
23046;SDS011;11691;51.462;6.902;2022-11-18T15:56:12;12.88;;;4.70;;
23046;SDS011;11691;51.462;6.902;2022-11-18T15:58:54;16.25;;;4.63;;
23046;SDS011;11691;51.462;6.902;2022-11-18T16:01:20;11.05;;;4.93;;
23046;SDS011;11691;51.462;6.902;2022-11-18T16:03:46;11.95;;;4.25;;
23046;SDS011;11691;51.462;6.902;2022-11-18T16:06:12;9.60;;;4.28;;
23046;SDS011;11691;51.462;6.902;2022-11-18T16:08:38;9.68;;;4.15;;
23046;SDS011;11691;51.462;6.902;2022-11-18T16:11:04;10.68;;;4.22;;
23046;SDS011;11691;51.462;6.902;2022-11-18T16:13:48;12.47;;;4.67;;
23046;SDS011;11691;51.462;6.902;2022-11-18T16:16:21;10.05;;;4.65;;
23046;SDS011;11691;51.462;6.902;2022-11-18T16:18:47;13.02;;;5.32;;
23046;SDS011;11691;51.462;6.902;2022-11-18T16:21:13;11.80;;;5.95;;
23046;SDS011;11691;51.462;6.902;2022-11-18T16:23:39;9.25;;;5.68;;
23046;SDS011;11691;51.462;6.902;2022-11-18T16:26:05;11.88;;;6.03;;
23046;SDS011;11691;51.462;6.902;2022-11-18T16:28:31;12.30;;;7.17;;
23046;SDS011;11691;51.462;6.902;2022-11-18T16:30:57;14.17;;;7.40;;
23046;SDS011;11691;51.462;6.902;2022-11-18T16:33:50;13.43;;;6.10;;
23046;SDS011;11691;51.462;6.902;2022-11-18T16:36:16;17.25;;;6.53;;
23046;SDS011;11691;51.462;6.902;2022-11-18T16:38:42;14.83;;;6.93;;
23046;SDS011;11691;51.462;6.902;2022-11-18T16:41:08;9.10;;;6.60;;